createdAt,value
2022-08-16T00:02:24.637Z,15.27
2022-08-16T00:04:51.856Z,16.38
2022-08-16T00:07:34.361Z,15.52
2022-08-16T00:10:02.577Z,16.42
2022-08-16T00:12:30.648Z,16.85
2022-08-16T00:15:02.015Z,14.27
2022-08-16T00:17:29.403Z,17.85
2022-08-16T00:20:16.715Z,15.10
2022-08-16T00:22:48.930Z,16.27
2022-08-16T00:25:21.298Z,19.55
2022-08-16T00:28:08.414Z,19.25
2022-08-16T00:30:39.487Z,20.20
2022-08-16T00:33:06.791Z,17.95
2022-08-16T00:35:36.446Z,17.00
2022-08-16T00:38:41.013Z,27.02
2022-08-16T00:40:54.079Z,16.73
2022-08-16T00:43:23.050Z,16.80
2022-08-16T00:46:22.285Z,17.77
2022-08-16T00:48:52.810Z,16.38
2022-08-16T00:51:22.603Z,20.25
2022-08-16T00:53:51.034Z,17.77
2022-08-16T00:56:58.504Z,16.10
2022-08-16T00:59:27.404Z,15.70
2022-08-16T01:01:55.183Z,16.42
2022-08-16T01:04:30.942Z,17.98
2022-08-16T01:07:02.303Z,16.02
2022-08-16T01:09:33.138Z,20.63
2022-08-16T01:12:10.794Z,19.98
2022-08-16T01:14:51.182Z,16.95
2022-08-16T01:17:20.909Z,17.25
2022-08-16T01:19:57.182Z,15.77
2022-08-16T01:22:50.218Z,19.55
2022-08-16T01:25:21.815Z,18.25
2022-08-16T01:27:52.615Z,17.00
2022-08-16T01:30:26.144Z,25.05
2022-08-16T01:33:01.454Z,18.60
2022-08-16T01:35:36.360Z,17.30
2022-08-16T01:38:19.775Z,18.10
2022-08-16T01:40:47.865Z,15.10
2022-08-16T01:43:15.255Z,15.70
2022-08-16T01:45:43.337Z,15.18
2022-08-16T01:48:20.031Z,18.30
2022-08-16T01:51:09.013Z,18.48
2022-08-16T01:53:35.452Z,13.27
2022-08-16T01:56:03.323Z,15.23
2022-08-16T01:58:30.433Z,19.20
2022-08-16T02:00:58.093Z,18.33
2022-08-16T02:03:27.697Z,15.10
2022-08-16T02:06:00.043Z,18.75
2022-08-16T02:08:33.401Z,19.23
2022-08-16T02:11:02.969Z,22.08
2022-08-16T02:13:32.838Z,16.30
2022-08-16T02:16:00.135Z,20.50
2022-08-16T02:18:31.703Z,20.13
2022-08-16T02:21:01.503Z,21.87
2022-08-16T02:23:31.651Z,23.30
2022-08-16T02:25:59.965Z,20.75
2022-08-16T02:28:28.077Z,19.20
2022-08-16T02:31:03.428Z,22.90
2022-08-16T02:33:43.897Z,22.08
2022-08-16T02:36:48.070Z,18.30
2022-08-16T02:39:04.798Z,17.70
2022-08-16T02:41:32.387Z,21.35
2022-08-16T02:44:07.633Z,17.38
2022-08-16T02:46:35.285Z,19.63
2022-08-16T02:49:03.050Z,21.30
2022-08-16T02:51:33.600Z,18.13
2022-08-16T02:54:03.240Z,18.65
2022-08-16T02:56:32.136Z,20.17
2022-08-16T02:59:00.760Z,20.20
2022-08-16T03:01:33.739Z,21.42
2022-08-16T03:04:29.143Z,23.30
2022-08-16T03:06:59.687Z,21.55
2022-08-16T03:09:32.512Z,16.20
2022-08-16T03:12:00.994Z,20.15
2022-08-16T03:14:29.641Z,12.65
2022-08-16T03:17:00.946Z,10.98
2022-08-16T03:19:47.443Z,7.32
2022-08-16T03:22:28.006Z,10.60
2022-08-16T03:25:01.190Z,7.93
2022-08-16T03:27:30.765Z,10.33
2022-08-16T03:29:58.798Z,11.15
2022-08-16T03:32:28.123Z,11.63
2022-08-16T03:34:57.212Z,11.10
2022-08-16T03:37:24.376Z,10.10
2022-08-16T03:39:56.213Z,13.77
2022-08-16T03:42:24.103Z,11.38
2022-08-16T03:44:51.455Z,14.38
2022-08-16T03:47:34.256Z,14.13
2022-08-16T03:50:02.972Z,16.77
2022-08-16T03:52:31.430Z,15.35
2022-08-16T03:54:59.802Z,14.98
2022-08-16T03:57:31.657Z,12.20
2022-08-16T04:00:20.718Z,9.82
2022-08-16T04:03:10.122Z,10.93
2022-08-16T04:05:44.066Z,13.60
2022-08-16T04:08:22.902Z,14.88
2022-08-16T04:10:58.425Z,14.30
2022-08-16T04:13:58.933Z,11.52
2022-08-16T04:16:26.708Z,12.23
2022-08-16T04:19:02.050Z,10.10
2022-08-16T04:21:32.049Z,11.73
2022-08-16T04:23:59.496Z,13.13
2022-08-16T04:26:30.962Z,13.50
2022-08-16T04:29:16.296Z,11.93
2022-08-16T04:31:56.219Z,13.15
2022-08-16T04:34:29.239Z,13.68
2022-08-16T04:37:01.267Z,13.50
2022-08-16T04:39:36.640Z,16.73
2022-08-16T04:42:15.383Z,14.90
2022-08-16T04:44:53.983Z,15.05
2022-08-16T04:47:31.698Z,17.25
2022-08-16T04:50:01.915Z,21.73
2022-08-16T04:52:33.468Z,16.88
2022-08-16T04:55:11.920Z,17.13
2022-08-16T04:57:41.632Z,19.17
2022-08-16T05:00:30.628Z,20.40
2022-08-16T05:03:07.019Z,17.75
2022-08-16T05:05:36.812Z,20.17
2022-08-16T05:08:28.986Z,19.35
2022-08-16T05:11:03.709Z,19.65
2022-08-16T05:13:41.073Z,21.85
2022-08-16T05:16:19.798Z,19.08
2022-08-16T05:18:49.958Z,21.70
2022-08-16T05:21:17.476Z,22.75
2022-08-16T05:23:55.842Z,21.73
2022-08-16T05:26:29.638Z,19.85
2022-08-16T05:28:58.001Z,24.00
2022-08-16T05:31:31.262Z,20.52
2022-08-16T05:34:00.212Z,25.95
2022-08-16T05:36:35.701Z,20.73
2022-08-16T05:39:10.350Z,24.05
2022-08-16T05:41:45.604Z,23.25
2022-08-16T05:44:23.532Z,29.98
2022-08-16T05:47:00.539Z,31.80
2022-08-16T05:49:38.641Z,22.40
2022-08-16T05:52:11.693Z,24.00
2022-08-16T05:54:46.861Z,28.30
2022-08-16T05:57:15.525Z,26.77
2022-08-16T05:59:42.932Z,23.92
2022-08-16T06:02:10.536Z,25.85
2022-08-16T06:04:42.373Z,25.73
2022-08-16T06:07:25.214Z,25.98
2022-08-16T06:09:59.866Z,26.35
2022-08-16T06:12:28.998Z,27.63
2022-08-16T06:14:58.925Z,29.92
2022-08-16T06:17:41.136Z,30.27
2022-08-16T06:20:13.534Z,35.38
2022-08-16T06:22:41.061Z,27.67
2022-08-16T06:25:13.103Z,30.35
2022-08-16T06:27:57.631Z,31.65
2022-08-16T06:30:28.666Z,30.90
2022-08-16T06:32:56.423Z,34.20
2022-08-16T06:35:24.539Z,27.85
2022-08-16T06:37:52.564Z,28.85
2022-08-16T06:40:19.945Z,34.30
2022-08-16T06:42:48.456Z,25.38
2022-08-16T06:45:16.754Z,30.05
2022-08-16T06:47:53.093Z,28.60
2022-08-16T06:50:28.645Z,31.08
2022-08-16T06:52:58.094Z,26.52
2022-08-16T06:55:38.112Z,27.05
2022-08-16T06:58:08.556Z,32.08
2022-08-16T07:00:43.054Z,29.20
2022-08-16T07:03:26.799Z,28.45
2022-08-16T07:05:58.844Z,31.08
2022-08-16T07:08:27.601Z,25.83
2022-08-16T07:10:58.299Z,25.42
2022-08-16T07:14:00.279Z,30.00
2022-08-16T07:16:15.470Z,29.20
2022-08-16T07:18:58.871Z,30.27
2022-08-16T07:21:45.826Z,29.73
2022-08-16T07:24:29.519Z,28.13
2022-08-16T07:26:57.491Z,28.83
2022-08-16T07:29:25.555Z,29.40
2022-08-16T07:31:53.925Z,28.45
2022-08-16T07:34:35.669Z,27.48
2022-08-16T07:37:08.340Z,27.67
2022-08-16T07:39:43.411Z,27.38
2022-08-16T07:42:26.086Z,27.27
2022-08-16T07:44:57.111Z,27.40
2022-08-16T07:47:31.609Z,26.40
2022-08-16T07:49:59.223Z,25.05
2022-08-16T07:52:29.984Z,30.83
2022-08-16T07:54:57.620Z,23.80
2022-08-16T07:57:25.065Z,22.73
2022-08-16T07:59:56.998Z,28.00
2022-08-16T08:02:30.228Z,25.98
2022-08-16T08:05:03.365Z,26.23
2022-08-16T08:07:32.587Z,23.42
2022-08-16T08:10:00.070Z,23.50
2022-08-16T08:12:43.848Z,25.00
2022-08-16T08:17:42.610Z,26.40
2022-08-16T08:20:13.586Z,24.02
2022-08-16T08:22:53.612Z,24.67
2022-08-16T08:25:54.811Z,22.75
2022-08-16T08:28:16.143Z,24.90
2022-08-16T08:30:52.200Z,26.98
2022-08-16T08:33:31.589Z,22.42
2022-08-16T08:36:02.898Z,33.80
2022-08-16T08:38:45.249Z,22.05
2022-08-16T08:41:15.548Z,22.13
2022-08-16T08:43:47.124Z,22.52
2022-08-16T08:46:21.306Z,24.67
2022-08-16T08:49:02.137Z,27.58
2022-08-16T08:51:35.916Z,28.80
2022-08-16T08:54:06.789Z,22.48
2022-08-16T08:56:36.532Z,26.05
2022-08-16T08:59:13.502Z,23.75
2022-08-16T09:01:56.971Z,20.67
2022-08-16T09:04:27.353Z,25.42
2022-08-16T09:06:58.521Z,20.20
2022-08-16T09:09:33.462Z,16.38
2022-08-16T09:14:34.327Z,21.08
2022-08-16T09:17:11.429Z,26.00
2022-08-16T09:19:44.702Z,22.65
2022-08-16T09:22:21.037Z,20.92
2022-08-16T09:24:52.683Z,21.83
2022-08-16T09:27:25.412Z,20.20
2022-08-16T09:30:00.683Z,25.33
2022-08-16T09:32:31.059Z,25.65
2022-08-16T09:35:00.771Z,17.90
2022-08-16T09:37:36.755Z,19.85
2022-08-16T09:40:33.025Z,23.13
2022-08-16T09:42:59.127Z,21.05
2022-08-16T09:45:31.173Z,20.05
2022-08-16T09:47:58.987Z,24.60
2022-08-16T09:50:37.103Z,20.67
2022-08-16T09:53:14.729Z,20.15
2022-08-16T09:55:44.628Z,18.73
2022-08-16T09:58:37.537Z,22.08
2022-08-16T10:01:00.825Z,17.98
2022-08-16T10:03:30.547Z,19.77
2022-08-16T10:05:58.137Z,22.45
2022-08-16T10:08:27.917Z,29.45
2022-08-16T10:11:14.426Z,19.98
2022-08-16T10:13:51.187Z,21.25
2022-08-16T10:16:21.768Z,25.08
2022-08-16T10:19:00.676Z,23.70
2022-08-16T10:21:32.727Z,21.45
2022-08-16T10:24:03.362Z,19.23
2022-08-16T10:27:17.256Z,17.60
2022-08-16T10:29:22.396Z,22.98
2022-08-16T10:31:53.688Z,17.33
2022-08-16T10:34:31.517Z,16.70
2022-08-16T10:36:59.900Z,17.80
2022-08-16T10:39:40.871Z,14.48
2022-08-16T10:42:09.184Z,18.80
2022-08-16T10:44:36.836Z,16.83
2022-08-16T10:47:09.271Z,15.63
2022-08-16T10:49:39.023Z,18.13
2022-08-16T10:52:18.051Z,19.73
2022-08-16T10:57:34.963Z,21.38
2022-08-16T11:00:06.741Z,23.05
2022-08-16T11:03:42.284Z,20.17
2022-08-16T11:08:35.581Z,21.45
2022-08-16T11:11:12.778Z,20.52
2022-08-16T11:14:06.043Z,24.58
2022-08-16T11:19:30.274Z,21.45
2022-08-16T11:22:38.791Z,17.95
2022-08-16T11:24:45.524Z,22.55
2022-08-16T11:27:32.836Z,22.38
2022-08-16T11:30:04.245Z,23.42
2022-08-16T11:32:37.333Z,25.77
2022-08-16T11:35:10.681Z,18.98
2022-08-16T11:40:32.397Z,21.83
2022-08-16T11:43:04.638Z,19.13
2022-08-16T11:45:33.836Z,22.27
2022-08-16T11:48:03.245Z,17.00
2022-08-16T11:50:33.310Z,19.98
2022-08-16T11:53:04.866Z,18.77
2022-08-16T11:55:32.677Z,18.02
2022-08-16T11:58:00.352Z,18.52
2022-08-16T12:00:50.321Z,18.20
2022-08-16T12:03:36.728Z,19.45
2022-08-16T12:06:10.984Z,20.02
2022-08-16T12:08:52.729Z,18.92
2022-08-16T12:11:19.871Z,25.95
2022-08-16T12:13:49.987Z,17.60
2022-08-16T12:16:22.287Z,15.07
2022-08-16T12:18:52.225Z,15.98
2022-08-16T12:21:22.521Z,17.17
2022-08-16T12:23:50.379Z,18.63
2022-08-16T12:26:18.858Z,16.08
2022-08-16T12:28:54.500Z,17.77
2022-08-16T12:31:23.612Z,16.35
2022-08-16T12:33:54.276Z,14.05
2022-08-16T12:36:29.723Z,13.93
2022-08-16T12:41:34.886Z,16.38
2022-08-16T12:44:06.824Z,13.80
2022-08-16T12:46:36.720Z,19.67
2022-08-16T12:49:08.926Z,18.90
2022-08-16T12:51:58.926Z,20.00
2022-08-16T12:54:25.077Z,23.60
2022-08-16T12:56:52.587Z,25.35
2022-08-16T12:59:23.527Z,21.80
2022-08-16T13:01:58.352Z,18.23
2022-08-16T13:04:26.807Z,20.70
2022-08-16T13:06:57.252Z,24.23
2022-08-16T13:09:26.098Z,23.15
2022-08-16T13:12:16.138Z,18.88
2022-08-16T13:14:44.567Z,24.63
2022-08-16T13:17:18.560Z,24.95
2022-08-16T13:22:34.773Z,23.60
2022-08-16T13:25:02.282Z,23.27
2022-08-16T13:28:15.035Z,20.83
2022-08-16T13:30:37.144Z,19.65
2022-08-16T13:33:12.533Z,28.17
2022-08-16T13:35:46.110Z,15.50
2022-08-16T13:38:26.084Z,21.85
2022-08-16T13:40:58.938Z,23.88
2022-08-16T13:45:58.721Z,19.45
2022-08-16T13:48:43.354Z,22.42
2022-08-16T13:51:17.527Z,17.10
2022-08-16T13:53:59.038Z,20.77
2022-08-16T13:56:34.499Z,19.52
2022-08-16T13:59:19.230Z,14.85
2022-08-16T14:01:55.352Z,13.68
2022-08-16T14:04:35.292Z,13.98
2022-08-16T14:07:04.820Z,13.27
2022-08-16T14:09:33.726Z,14.63
2022-08-16T14:12:09.887Z,16.92
2022-08-16T14:14:45.240Z,23.52
2022-08-16T14:17:14.235Z,14.80
2022-08-16T14:19:44.984Z,11.93
2022-08-16T14:22:30.679Z,10.43
2022-08-16T14:24:59.745Z,18.17
2022-08-16T14:27:28.632Z,16.30
2022-08-16T14:30:01.229Z,14.48
2022-08-16T14:32:33.937Z,13.48
2022-08-16T14:35:07.860Z,16.58
2022-08-16T14:37:37.387Z,15.05
2022-08-16T14:40:12.573Z,20.92
2022-08-16T14:42:41.527Z,18.45
2022-08-16T14:45:13.722Z,24.35
2022-08-16T14:47:43.712Z,16.20
2022-08-16T14:50:16.207Z,13.48
2022-08-16T14:52:55.915Z,15.50
2022-08-16T14:55:28.894Z,16.38
2022-08-16T14:57:56.788Z,12.65
2022-08-16T15:00:33.022Z,11.45
2022-08-16T15:03:02.181Z,13.13
2022-08-16T15:08:01.792Z,19.50
2022-08-16T15:10:31.990Z,17.50
2022-08-16T15:13:01.119Z,18.02
2022-08-16T15:15:31.743Z,18.00
2022-08-16T15:18:02.461Z,13.93
2022-08-16T15:20:34.072Z,18.75
2022-08-16T15:23:02.393Z,13.68
2022-08-16T15:25:35.150Z,15.35
2022-08-16T15:28:04.776Z,18.75
2022-08-16T15:30:47.801Z,15.55
2022-08-16T15:33:25.798Z,15.40
2022-08-16T15:35:55.359Z,22.00
2022-08-16T15:38:54.668Z,16.63
2022-08-16T15:41:13.357Z,15.25
2022-08-16T15:43:40.649Z,17.60
2022-08-16T15:46:54.013Z,12.45
2022-08-16T15:49:12.144Z,16.08
2022-08-16T15:51:39.649Z,12.32
2022-08-16T15:54:29.387Z,11.45
2022-08-16T15:57:11.522Z,12.68
2022-08-16T15:59:48.885Z,11.02
2022-08-16T16:02:29.323Z,14.13
2022-08-16T16:05:01.532Z,10.38
2022-08-16T16:07:30.204Z,12.52
2022-08-16T16:09:58.930Z,10.35
2022-08-16T16:12:50.825Z,9.82
2022-08-16T16:15:18.808Z,10.50
2022-08-16T16:17:51.259Z,9.55
2022-08-16T16:20:24.550Z,9.20
2022-08-16T16:23:02.540Z,8.93
2022-08-16T16:25:30.713Z,12.32
2022-08-16T16:27:59.806Z,10.63
2022-08-16T16:30:33.143Z,13.93
2022-08-16T16:33:20.554Z,13.80
2022-08-16T16:35:54.973Z,14.38
2022-08-16T16:38:24.112Z,10.30
2022-08-16T16:41:01.688Z,7.88
2022-08-16T16:43:32.010Z,11.10
2022-08-16T16:46:00.713Z,12.45
2022-08-16T16:48:34.472Z,11.73
2022-08-16T16:51:09.728Z,10.05
2022-08-16T16:53:44.783Z,17.77
2022-08-16T16:56:19.399Z,12.48
2022-08-16T16:59:01.038Z,12.77
2022-08-16T17:01:41.247Z,10.52
2022-08-16T17:04:23.985Z,10.93
2022-08-16T17:06:58.625Z,11.07
2022-08-16T17:09:27.879Z,9.43
2022-08-16T17:11:55.907Z,10.45
2022-08-16T17:14:31.858Z,7.30
2022-08-16T17:16:59.672Z,9.98
2022-08-16T17:19:31.781Z,7.55
2022-08-16T17:21:59.668Z,11.02
2022-08-16T17:24:31.171Z,9.20
2022-08-16T17:27:06.778Z,8.20
2022-08-16T17:29:42.869Z,9.38
2022-08-16T17:32:46.575Z,8.20
2022-08-16T17:35:03.013Z,14.55
2022-08-16T17:37:48.812Z,10.43
2022-08-16T17:40:40.288Z,11.43
2022-08-16T17:43:19.148Z,13.93
2022-08-16T17:45:50.591Z,14.88
2022-08-16T17:48:18.219Z,11.70
2022-08-16T17:50:46.084Z,21.02
2022-08-16T17:53:16.046Z,17.75
2022-08-16T17:55:46.703Z,12.98
2022-08-16T17:58:22.311Z,17.50
2022-08-16T18:00:52.176Z,13.45
2022-08-16T18:04:03.264Z,14.30
2022-08-16T18:06:13.051Z,16.02
2022-08-16T18:08:43.494Z,18.50
2022-08-16T18:11:12.752Z,13.75
2022-08-16T18:13:43.460Z,17.35
2022-08-16T18:16:11.303Z,16.30
2022-08-16T18:18:38.685Z,15.23
2022-08-16T18:21:24.632Z,15.75
2022-08-16T18:23:51.719Z,15.85
2022-08-16T18:26:18.880Z,19.75
2022-08-16T18:28:45.977Z,18.58
2022-08-16T18:31:13.123Z,17.15
2022-08-16T18:33:43.770Z,19.58
2022-08-16T18:36:20.643Z,14.38
2022-08-16T18:38:49.828Z,20.35
2022-08-16T18:41:17.717Z,19.42
2022-08-16T18:43:54.666Z,26.08
2022-08-16T18:46:32.293Z,22.88
2022-08-16T18:48:59.912Z,24.83
2022-08-16T18:51:30.526Z,23.45
2022-08-16T18:53:58.635Z,21.13
2022-08-16T18:56:55.824Z,24.73
2022-08-16T18:59:14.056Z,25.25
2022-08-16T19:01:43.633Z,23.60
2022-08-16T19:04:54.878Z,20.48
2022-08-16T19:06:59.929Z,18.30
2022-08-16T19:09:27.048Z,17.30
2022-08-16T19:11:54.139Z,20.85
2022-08-16T19:14:29.221Z,22.35
2022-08-16T19:16:59.047Z,25.80
2022-08-16T19:19:26.105Z,20.90
2022-08-16T19:21:53.453Z,19.10
2022-08-16T19:24:20.534Z,21.80
2022-08-16T19:26:49.365Z,26.05
2022-08-16T19:29:16.464Z,23.08
2022-08-16T19:31:44.635Z,22.25
2022-08-16T19:34:13.549Z,21.20
2022-08-16T19:36:40.883Z,21.60
2022-08-16T19:39:16.482Z,18.38
2022-08-16T19:41:53.172Z,26.35
2022-08-16T19:44:21.416Z,29.42
2022-08-16T19:46:49.238Z,23.88
2022-08-16T19:49:17.147Z,26.75
2022-08-16T19:51:45.348Z,24.50
2022-08-16T19:54:12.713Z,39.88
2022-08-16T19:56:39.943Z,31.40
2022-08-16T19:59:40.108Z,33.38
2022-08-16T20:01:54.361Z,34.65
2022-08-16T20:04:22.487Z,40.80
2022-08-16T20:06:49.772Z,36.63
2022-08-16T20:09:16.939Z,37.38
2022-08-16T20:11:45.453Z,36.70
2022-08-16T20:14:24.854Z,41.60
2022-08-16T20:16:54.745Z,40.10
2022-08-16T20:19:21.885Z,51.50
2022-08-16T20:21:49.705Z,38.92
2022-08-16T20:24:33.614Z,35.28
2022-08-16T20:27:01.750Z,37.17
2022-08-16T20:29:29.552Z,37.60
2022-08-16T20:31:56.747Z,45.80
2022-08-16T20:34:23.856Z,38.00
2022-08-16T20:36:51.079Z,37.67
2022-08-16T20:39:20.750Z,42.00
2022-08-16T20:41:48.361Z,44.38
2022-08-16T20:44:15.814Z,34.42
2022-08-16T20:46:50.372Z,30.45
2022-08-16T20:49:17.573Z,31.05
2022-08-16T20:51:50.493Z,32.95
2022-08-16T20:54:18.541Z,32.28
2022-08-16T20:56:45.833Z,30.58
2022-08-16T20:59:12.861Z,35.03
2022-08-16T21:01:46.713Z,28.38
2022-08-16T21:04:18.853Z,26.15
2022-08-16T21:06:54.085Z,25.17
2022-08-16T21:09:31.478Z,31.52
2022-08-16T21:12:00.915Z,28.80
2022-08-16T21:14:29.091Z,29.38
2022-08-16T21:16:56.435Z,31.02
2022-08-16T21:19:23.609Z,28.30
2022-08-16T21:21:53.423Z,34.85
2022-08-16T21:24:20.690Z,38.47
2022-08-16T21:26:56.103Z,44.53
2022-08-16T21:29:24.907Z,42.78
2022-08-16T21:31:53.629Z,41.38
2022-08-16T21:34:25.832Z,43.92
2022-08-16T21:36:55.607Z,43.58
2022-08-16T21:39:22.723Z,47.95
2022-08-16T21:41:51.991Z,48.63
2022-08-16T21:44:22.091Z,45.72
2022-08-16T21:46:59.661Z,47.15
2022-08-16T21:49:26.844Z,55.70
2022-08-16T21:51:54.284Z,48.60
2022-08-16T21:54:24.064Z,49.80
2022-08-16T21:56:51.595Z,49.42
2022-08-16T21:59:18.708Z,46.22
2022-08-16T22:01:46.778Z,48.30
2022-08-16T22:04:38.161Z,49.50
2022-08-16T22:07:01.864Z,41.63
2022-08-16T22:09:29.212Z,38.65
2022-08-16T22:11:56.486Z,43.08
2022-08-16T22:14:23.578Z,42.20
2022-08-16T22:16:50.730Z,40.42
2022-08-16T22:19:18.314Z,42.83
2022-08-16T22:21:45.476Z,56.10
2022-08-16T22:24:12.723Z,44.75
2022-08-16T22:26:43.369Z,47.35
2022-08-16T22:29:12.827Z,50.38
2022-08-16T22:31:41.533Z,45.80
2022-08-16T22:34:08.945Z,46.60
2022-08-16T22:36:36.530Z,50.90
2022-08-16T22:39:06.016Z,46.13
2022-08-16T22:41:34.466Z,47.33
2022-08-16T22:44:02.501Z,50.53
2022-08-16T22:46:30.475Z,44.75
2022-08-16T22:48:57.829Z,45.40
2022-08-16T22:51:26.752Z,52.70
2022-08-16T22:53:54.393Z,47.30
2022-08-16T22:56:21.763Z,49.88
2022-08-16T22:58:49.416Z,49.78
2022-08-16T23:01:17.739Z,48.22
2022-08-16T23:03:45.689Z,47.35
2022-08-16T23:06:13.667Z,51.33
2022-08-16T23:08:41.758Z,47.85
2022-08-16T23:11:10.620Z,39.50
2022-08-16T23:13:38.285Z,42.00
2022-08-16T23:16:21.358Z,47.70
2022-08-16T23:18:49.404Z,49.20
2022-08-16T23:21:17.930Z,50.38
2022-08-16T23:23:46.732Z,48.83
2022-08-16T23:26:46.316Z,48.50
2022-08-16T23:29:04.445Z,52.60
2022-08-16T23:31:32.443Z,49.03
2022-08-16T23:34:00.131Z,49.85
2022-08-16T23:36:27.663Z,49.00
2022-08-16T23:38:54.900Z,46.33
2022-08-16T23:41:22.580Z,52.00
2022-08-16T23:43:49.736Z,49.88
2022-08-16T23:46:17.909Z,49.83
2022-08-16T23:49:58.303Z,51.75
2022-08-16T23:51:32.615Z,57.42
2022-08-16T23:54:00.509Z,51.85
2022-08-16T23:56:27.615Z,49.45
2022-08-16T23:59:02.466Z,45.63
